createdAt,value
2019-01-18T00:01:26.559Z,0.70
2019-01-18T00:06:33.472Z,0.60
2019-01-18T00:11:40.895Z,0.78
2019-01-18T00:16:47.202Z,0.62
2019-01-18T00:21:54.079Z,0.60
2019-01-18T00:27:00.792Z,0.70
2019-01-18T00:32:07.422Z,0.80
2019-01-18T00:37:13.573Z,0.50
2019-01-18T00:42:19.601Z,0.60
2019-01-18T00:47:26.592Z,0.80
2019-01-18T00:52:33.682Z,0.60
2019-01-18T00:57:40.412Z,0.60
2019-01-18T01:02:47.534Z,0.57
2019-01-18T01:07:54.252Z,0.90
2019-01-18T01:13:19.138Z,0.60
2019-01-18T01:18:25.472Z,0.82
2019-01-18T01:23:32.330Z,0.50
2019-01-18T01:28:38.162Z,0.70
2019-01-18T01:33:45.076Z,0.50
2019-01-18T01:38:52.947Z,0.60
2019-01-18T01:43:59.482Z,0.68
2019-01-18T01:49:05.719Z,0.70
2019-01-18T01:54:11.508Z,0.45
2019-01-18T01:59:17.731Z,0.60
2019-01-18T02:04:24.881Z,0.50
2019-01-18T02:09:31.023Z,0.50
2019-01-18T02:14:36.610Z,0.72
2019-01-18T02:19:42.543Z,0.50
2019-01-18T02:24:48.995Z,0.42
2019-01-18T02:29:56.736Z,0.50
2019-01-18T02:35:02.203Z,0.42
2019-01-18T02:40:09.242Z,0.40
2019-01-18T02:45:16.932Z,0.40
2019-01-18T02:50:23.183Z,0.62
2019-01-18T02:55:29.856Z,0.50
2019-01-18T03:00:35.643Z,0.50
2019-01-18T03:05:41.443Z,0.53
2019-01-18T03:10:47.913Z,0.70
2019-01-18T03:15:53.742Z,0.50
2019-01-18T03:21:00.113Z,0.53
2019-01-18T03:26:06.263Z,0.60
2019-01-18T03:31:12.830Z,0.70
2019-01-18T03:36:19.252Z,0.50
2019-01-18T03:41:24.715Z,0.55
2019-01-18T03:46:30.466Z,0.50
2019-01-18T03:51:36.282Z,0.45
2019-01-18T03:56:42.972Z,0.60
2019-01-18T04:01:48.983Z,0.40
2019-01-18T04:06:55.263Z,0.53
2019-01-18T04:12:02.381Z,0.60
2019-01-18T04:17:08.776Z,0.40
2019-01-18T04:22:16.133Z,0.50
2019-01-18T04:27:21.933Z,0.30
2019-01-18T04:32:28.672Z,0.40
2019-01-18T04:37:35.463Z,0.62
2019-01-18T04:42:42.633Z,0.50
2019-01-18T04:47:49.095Z,0.40
2019-01-18T04:52:55.214Z,0.60
2019-01-18T04:58:01.009Z,0.37
2019-01-18T05:03:07.493Z,0.42
2019-01-18T05:08:14.211Z,0.40
2019-01-18T05:13:20.613Z,0.50
2019-01-18T05:18:26.712Z,0.50
2019-01-18T05:23:32.701Z,0.50
2019-01-18T05:28:38.792Z,0.60
2019-01-18T05:33:44.666Z,0.60
2019-01-18T05:38:50.572Z,0.65
2019-01-18T05:43:57.003Z,0.45
2019-01-18T05:49:02.871Z,0.50
2019-01-18T05:54:08.712Z,0.70
2019-01-18T05:59:14.734Z,0.70
2019-01-18T06:04:20.954Z,0.85
2019-01-18T06:09:27.723Z,0.60
2019-01-18T06:14:33.583Z,0.50
2019-01-18T06:19:39.302Z,0.70
2019-01-18T06:24:45.079Z,0.50
2019-01-18T06:29:51.994Z,0.70
2019-01-18T06:34:57.732Z,0.80
2019-01-18T06:40:03.322Z,0.75
2019-01-18T06:45:10.532Z,0.78
2019-01-18T06:50:18.482Z,0.50
2019-01-18T06:55:25.293Z,0.90
2019-01-18T07:00:32.845Z,0.80
2019-01-18T07:05:39.373Z,0.70
2019-01-18T07:10:45.503Z,0.80
2019-01-18T07:15:51.511Z,0.80
2019-01-18T07:20:58.092Z,0.70
2019-01-18T07:26:03.884Z,0.90
2019-01-18T07:31:30.131Z,0.82
2019-01-18T07:36:35.832Z,1.00
2019-01-18T07:41:41.592Z,0.93
2019-01-18T07:46:47.142Z,1.00
2019-01-18T07:51:53.145Z,2.10
2019-01-18T07:57:00.042Z,2.20
2019-01-18T08:02:05.750Z,2.22
2019-01-18T08:07:12.832Z,2.20
2019-01-18T08:12:18.582Z,1.67
2019-01-18T08:17:25.062Z,1.45
2019-01-18T08:22:31.012Z,1.60
2019-01-18T08:27:36.842Z,1.52
2019-01-18T08:32:43.374Z,1.82
2019-01-18T08:37:49.083Z,1.25
2019-01-18T08:42:54.661Z,1.47
2019-01-18T08:48:00.912Z,1.50
2019-01-18T08:53:07.913Z,1.40
2019-01-18T08:58:14.192Z,1.60
2019-01-18T09:03:20.503Z,1.50
2019-01-18T09:08:26.904Z,1.25
2019-01-18T09:13:34.184Z,1.35
2019-01-18T09:18:40.062Z,1.60
2019-01-18T09:23:46.382Z,1.32
2019-01-18T09:28:52.003Z,1.17
2019-01-18T09:33:57.842Z,1.50
2019-01-18T09:39:13.434Z,1.20
2019-01-18T09:44:19.623Z,1.67
2019-01-18T09:49:25.112Z,1.52
2019-01-18T09:54:31.269Z,1.40
2019-01-18T09:59:36.733Z,1.07
2019-01-18T10:04:42.972Z,1.30
2019-01-18T10:09:49.742Z,1.50
2019-01-18T10:14:56.072Z,1.27
2019-01-18T10:20:02.392Z,1.52
2019-01-18T10:25:09.854Z,1.20
2019-01-18T10:30:20.652Z,1.10
2019-01-18T10:35:26.542Z,1.62
2019-01-18T10:40:32.383Z,1.02
2019-01-18T10:45:39.722Z,1.25
2019-01-18T10:50:45.962Z,1.20
2019-01-18T10:55:52.703Z,1.30
2019-01-18T11:00:58.250Z,1.22
2019-01-18T11:06:03.993Z,1.32
2019-01-18T11:11:09.752Z,1.12
2019-01-18T11:16:15.671Z,1.17
2019-01-18T11:21:27.163Z,0.80
2019-01-18T11:26:33.579Z,1.30
2019-01-18T11:31:39.034Z,1.15
2019-01-18T11:36:45.672Z,1.17
2019-01-18T11:41:51.185Z,1.00
2019-01-18T11:46:57.712Z,1.10
2019-01-18T11:52:04.332Z,1.02
2019-01-18T11:57:10.292Z,0.98
2019-01-18T12:02:21.919Z,0.90
2019-01-18T12:07:24.003Z,1.00
2019-01-18T12:12:30.005Z,1.00
2019-01-18T12:17:35.994Z,0.98
2019-01-18T12:22:41.622Z,0.90
2019-01-18T12:27:48.772Z,0.90
2019-01-18T12:32:54.689Z,1.00
2019-01-18T12:38:00.533Z,1.00
2019-01-18T12:43:06.233Z,1.20
2019-01-18T12:48:13.972Z,0.80
2019-01-18T12:53:20.072Z,0.90
2019-01-18T12:58:25.812Z,0.90
2019-01-18T13:03:32.196Z,0.93
2019-01-18T13:08:38.443Z,1.10
2019-01-18T13:13:45.273Z,0.95
2019-01-18T13:18:54.302Z,0.93
2019-01-18T13:24:00.014Z,0.93
2019-01-18T13:29:06.392Z,1.10
2019-01-18T13:34:13.352Z,0.90
2019-01-18T13:39:19.112Z,1.15
2019-01-18T13:44:26.345Z,0.82
2019-01-18T13:49:32.262Z,0.90
2019-01-18T13:54:37.473Z,0.80
2019-01-18T13:59:42.944Z,0.80
2019-01-18T14:04:48.433Z,0.68
2019-01-18T14:09:53.966Z,0.90
2019-01-18T14:14:59.714Z,0.80
2019-01-18T14:20:06.562Z,0.68
2019-01-18T14:25:12.352Z,0.93
2019-01-18T14:30:23.364Z,0.90
2019-01-18T14:35:29.243Z,0.80
2019-01-18T14:40:34.924Z,0.75
2019-01-18T14:45:42.193Z,0.62
2019-01-18T14:50:48.083Z,1.00
2019-01-18T14:55:53.803Z,0.80
2019-01-18T15:00:59.423Z,0.90
2019-01-18T15:06:05.452Z,0.70
2019-01-18T15:11:12.536Z,1.00
2019-01-18T15:16:18.343Z,0.62
2019-01-18T15:21:23.914Z,0.80
2019-01-18T15:26:30.233Z,1.00
2019-01-18T15:31:35.891Z,1.00
2019-01-18T15:36:41.443Z,0.70
2019-01-18T15:41:46.992Z,0.70
2019-01-18T15:46:53.043Z,0.80
2019-01-18T15:51:58.734Z,0.88
2019-01-18T15:57:05.172Z,0.80
2019-01-18T16:02:11.213Z,0.80
2019-01-18T16:07:18.012Z,0.88
2019-01-18T16:12:25.191Z,0.80
2019-01-18T16:17:32.743Z,0.80
2019-01-18T16:22:39.093Z,0.85
2019-01-18T16:27:44.763Z,0.80
2019-01-18T16:32:50.483Z,1.80
2019-01-18T16:37:56.411Z,1.27
2019-01-18T16:43:05.582Z,1.52
2019-01-18T16:48:11.432Z,1.95
2019-01-18T16:53:17.002Z,1.50
2019-01-18T16:58:23.012Z,1.77
2019-01-18T17:03:30.503Z,1.60
2019-01-18T17:08:36.524Z,1.65
2019-01-18T17:13:43.063Z,1.70
2019-01-18T17:18:48.972Z,1.90
2019-01-18T17:23:54.611Z,1.95
2019-01-18T17:29:01.838Z,1.67
2019-01-18T17:34:08.793Z,1.92
2019-01-18T17:39:40.663Z,2.20
2019-01-18T17:45:12.794Z,2.47
2019-01-18T17:51:09.147Z,1.98
2019-01-18T17:57:08.433Z,2.00
2019-01-18T18:02:50.452Z,1.87
2019-01-18T18:08:45.392Z,2.15
2019-01-18T18:14:05.942Z,2.20
2019-01-18T18:19:54.352Z,1.72
2019-01-18T18:25:30.842Z,1.90
2019-01-18T18:31:05.704Z,2.12
2019-01-18T18:37:02.695Z,1.60
2019-01-18T18:42:58.233Z,2.20
2019-01-18T18:48:30.414Z,1.82
2019-01-18T18:54:02.672Z,2.25
2019-01-18T18:59:50.675Z,2.00
2019-01-18T19:05:15.521Z,1.77
2019-01-18T19:11:02.798Z,1.90
2019-01-18T19:16:36.052Z,2.95
2019-01-18T19:22:31.891Z,3.37
2019-01-18T19:28:28.252Z,3.10
2019-01-18T19:33:44.072Z,3.85
2019-01-18T19:39:51.543Z,3.90
2019-01-18T19:45:39.292Z,3.60
2019-01-18T19:51:15.483Z,3.80
2019-01-18T19:56:54.226Z,3.83
2019-01-18T20:02:45.092Z,4.00
2019-01-18T20:08:26.244Z,3.33
2019-01-18T20:14:22.622Z,4.17
2019-01-18T20:20:02.333Z,3.60
2019-01-18T20:25:26.174Z,3.00
2019-01-18T20:31:00.752Z,3.65
2019-01-18T20:36:35.721Z,4.28
2019-01-18T20:42:44.095Z,4.40
2019-01-18T20:48:18.954Z,3.67
2019-01-18T20:54:05.823Z,3.25
2019-01-18T20:59:29.442Z,3.27
2019-01-18T21:05:19.128Z,2.92
2019-01-18T21:10:50.372Z,3.27
2019-01-18T21:16:46.974Z,3.65
2019-01-18T21:22:53.492Z,3.40
2019-01-18T21:29:12.693Z,3.35
2019-01-18T21:35:09.553Z,3.17
2019-01-18T21:41:18.156Z,3.08
2019-01-18T21:47:25.428Z,3.08
2019-01-18T21:54:01.446Z,2.52
2019-01-18T22:00:41.415Z,2.80
2019-01-18T22:06:58.059Z,3.12
2019-01-18T22:12:54.950Z,3.08
2019-01-18T22:18:31.469Z,3.22
2019-01-18T22:23:47.453Z,3.08
2019-01-18T22:29:28.424Z,2.70
2019-01-18T22:35:21.284Z,2.92
2019-01-18T22:41:04.460Z,2.85
2019-01-18T22:46:41.810Z,2.87
2019-01-18T22:52:25.272Z,2.67
2019-01-18T22:58:07.920Z,3.02
2019-01-18T23:03:54.740Z,3.00
2019-01-18T23:09:36.930Z,2.75
2019-01-18T23:14:58.450Z,2.67
2019-01-18T23:20:51.890Z,3.15
2019-01-18T23:26:42.850Z,2.70
2019-01-18T23:32:27.672Z,2.95
2019-01-18T23:38:14.040Z,2.65
2019-01-18T23:44:07.570Z,2.22
2019-01-18T23:49:57.611Z,2.42
2019-01-18T23:55:35.272Z,2.98
